Weather at Nairobi Wilson Airport

Public forecast

Using degrees Celsius for public forecast. Weather courtesy of forecast.io.

Current aviation weather report (METAR) for Nairobi Wilson Airport

Retrieved 2021/11/29 07:00 UTC (41 minutes ago):

HKNW 290700Z 08008KT 9999 BKN021 BKN090 19/16 Q1022

Aviation forecast (TAF) for Nairobi Wilson Airport

Forecast is more than 12 hours old.

Retrieved 2021/11/27 06:18 UTC (2 days ago):

TAF TAF HKNW 270500Z 2706/2806 06005KT 9999 BKN021 BKN080 BECMG 2709/2712 07010KT FEW026CB SCT027 TEMPO 2713/2717